sensor_id;sensor_type;location;lat;lon;timestamp;pressure;altitude;pressure_sealevel;temperature;humidity
49825;BME280;35714;55.708;37.478;2023-09-19T00:01:40;99917.50;;;13.29;71.32
49825;BME280;35714;55.708;37.478;2023-09-19T00:04:09;99914.22;;;13.27;71.44
49825;BME280;35714;55.708;37.478;2023-09-19T00:06:36;99916.69;;;13.28;71.67
49825;BME280;35714;55.708;37.478;2023-09-19T00:09:03;99921.06;;;13.29;71.68
49825;BME280;35714;55.708;37.478;2023-09-19T00:11:29;99921.63;;;13.31;72.02
49825;BME280;35714;55.708;37.478;2023-09-19T00:13:57;99923.31;;;13.32;71.91
49825;BME280;35714;55.708;37.478;2023-09-19T00:16:25;99920.00;;;13.30;72.25
49825;BME280;35714;55.708;37.478;2023-09-19T00:18:51;99921.19;;;13.34;72.15
49825;BME280;35714;55.708;37.478;2023-09-19T00:21:18;99918.22;;;13.36;72.22
49825;BME280;35714;55.708;37.478;2023-09-19T00:23:47;99921.19;;;13.34;72.26
49825;BME280;35714;55.708;37.478;2023-09-19T00:26:13;99908.66;;;13.33;72.54
49825;BME280;35714;55.708;37.478;2023-09-19T00:28:41;99913.63;;;13.37;72.22
49825;BME280;35714;55.708;37.478;2023-09-19T00:31:08;99913.38;;;13.38;72.44
49825;BME280;35714;55.708;37.478;2023-09-19T00:33:34;99922.38;;;13.39;72.48
49825;BME280;35714;55.708;37.478;2023-09-19T00:35:59;99921.56;;;13.38;72.52
49825;BME280;35714;55.708;37.478;2023-09-19T00:38:31;99929.00;;;13.43;72.56
49825;BME280;35714;55.708;37.478;2023-09-19T00:40:57;99932.31;;;13.45;72.47
49825;BME280;35714;55.708;37.478;2023-09-19T00:43:25;99930.53;;;13.50;72.75
49825;BME280;35714;55.708;37.478;2023-09-19T00:45:54;99922.69;;;13.54;72.64
49825;BME280;35714;55.708;37.478;2023-09-19T00:48:21;99927.06;;;13.55;72.70
49825;BME280;35714;55.708;37.478;2023-09-19T00:50:48;99917.72;;;13.51;72.90
49825;BME280;35714;55.708;37.478;2023-09-19T00:53:20;99923.97;;;13.51;72.67
49825;BME280;35714;55.708;37.478;2023-09-19T00:55:47;99923.06;;;13.46;72.52
49825;BME280;35714;55.708;37.478;2023-09-19T00:58:13;99919.75;;;13.44;72.88
49825;BME280;35714;55.708;37.478;2023-09-19T01:00:40;99923.06;;;13.46;72.87
49825;BME280;35714;55.708;37.478;2023-09-19T01:03:07;99919.75;;;13.44;72.72
49825;BME280;35714;55.708;37.478;2023-09-19T01:05:33;99921.41;;;13.45;72.70
49825;BME280;35714;55.708;37.478;2023-09-19T01:07:59;99923.88;;;13.46;72.92
49825;BME280;35714;55.708;37.478;2023-09-19T01:10:25;99925.56;;;13.47;72.69
49825;BME280;35714;55.708;37.478;2023-09-19T01:13:05;99911.69;;;13.49;72.45
49825;BME280;35714;55.708;37.478;2023-09-19T01:18:11;99916.53;;;13.47;72.55
49825;BME280;35714;55.708;37.478;2023-09-19T01:31:33;99922.63;;;13.25;72.49
49825;BME280;35714;55.708;37.478;2023-09-19T01:34:03;99919.28;;;13.23;72.70
49825;BME280;35714;55.708;37.478;2023-09-19T01:36:35;99914.81;;;13.17;72.67
49825;BME280;35714;55.708;37.478;2023-09-19T01:39:11;99903.34;;;13.15;72.77
49825;BME280;35714;55.708;37.478;2023-09-19T01:41:56;99914.81;;;13.17;72.80
49825;BME280;35714;55.708;37.478;2023-09-19T01:47:22;99905.81;;;13.05;72.57
49825;BME280;35714;55.708;37.478;2023-09-19T01:49:55;99896.88;;;12.92;72.74
49825;BME280;35714;55.708;37.478;2023-09-19T01:52:30;99894.50;;;12.84;73.03
49825;BME280;35714;55.708;37.478;2023-09-19T01:55:05;99897.59;;;12.76;73.15
49825;BME280;35714;55.708;37.478;2023-09-19T01:57:38;99877.25;;;12.67;72.97
49825;BME280;35714;55.708;37.478;2023-09-19T02:00:08;99885.41;;;12.67;73.35
49825;BME280;35714;55.708;37.478;2023-09-19T02:02:44;99895.69;;;12.64;73.53
49825;BME280;35714;55.708;37.478;2023-09-19T02:05:10;99887.91;;;12.56;73.50
49825;BME280;35714;55.708;37.478;2023-09-19T02:07:38;99888.84;;;12.50;73.62
49825;BME280;35714;55.708;37.478;2023-09-19T02:10:05;99891.47;;;12.45;73.75
49825;BME280;35714;55.708;37.478;2023-09-19T02:12:33;99877.13;;;12.38;73.92
49825;BME280;35714;55.708;37.478;2023-09-19T02:15:04;99877.59;;;12.35;73.97
49825;BME280;35714;55.708;37.478;2023-09-19T02:17:33;99873.09;;;12.28;74.23
49825;BME280;35714;55.708;37.478;2023-09-19T02:19:59;99877.97;;;12.26;74.39
49825;BME280;35714;55.708;37.478;2023-09-19T02:22:27;99882.19;;;12.22;74.55
49825;BME280;35714;55.708;37.478;2023-09-19T02:24:55;99878.91;;;12.20;74.71
49825;BME280;35714;55.708;37.478;2023-09-19T02:27:24;99874.16;;;12.16;74.72
49825;BME280;35714;55.708;37.478;2023-09-19T02:29:52;99871.44;;;12.16;75.04
49825;BME280;35714;55.708;37.478;2023-09-19T02:32:18;99877.34;;;12.13;74.93
49825;BME280;35714;55.708;37.478;2023-09-19T02:34:44;99880.88;;;12.13;75.12
49825;BME280;35714;55.708;37.478;2023-09-19T02:37:11;99891.16;;;12.11;74.80
49825;BME280;35714;55.708;37.478;2023-09-19T02:39:39;99885.97;;;12.09;75.25
49825;BME280;35714;55.708;37.478;2023-09-19T02:42:05;99877.00;;;12.09;75.48
49825;BME280;35714;55.708;37.478;2023-09-19T02:44:31;99877.00;;;12.09;75.40
49825;BME280;35714;55.708;37.478;2023-09-19T02:46:58;99875.91;;;12.10;75.50
49825;BME280;35714;55.708;37.478;2023-09-19T02:49:24;99866.13;;;12.09;75.99
49825;BME280;35714;55.708;37.478;2023-09-19T02:51:51;99869.41;;;12.11;76.05
49825;BME280;35714;55.708;37.478;2023-09-19T02:54:17;99871.09;;;12.12;76.03
49825;BME280;35714;55.708;37.478;2023-09-19T02:56:43;99873.94;;;12.17;75.99
49825;BME280;35714;55.708;37.478;2023-09-19T02:59:09;99874.28;;;12.21;76.13
49825;BME280;35714;55.708;37.478;2023-09-19T03:01:36;99863.16;;;12.22;76.10
49825;BME280;35714;55.708;37.478;2023-09-19T03:04:05;99867.66;;;12.28;76.16
49825;BME280;35714;55.708;37.478;2023-09-19T03:06:32;99868.25;;;12.31;76.08
49825;BME280;35714;55.708;37.478;2023-09-19T03:08:58;99874.88;;;12.35;76.06
49825;BME280;35714;55.708;37.478;2023-09-19T03:11:26;99865.19;;;12.39;75.97
49825;BME280;35714;55.708;37.478;2023-09-19T03:13:55;99878.91;;;12.44;75.90
49825;BME280;35714;55.708;37.478;2023-09-19T03:16:22;99874.16;;;12.51;75.62
49825;BME280;35714;55.708;37.478;2023-09-19T03:18:49;99873.69;;;12.54;75.35
49825;BME280;35714;55.708;37.478;2023-09-19T03:21:17;99876.31;;;12.61;75.30
49825;BME280;35714;55.708;37.478;2023-09-19T03:23:43;99873.94;;;12.64;75.36
49825;BME280;35714;55.708;37.478;2023-09-19T03:26:13;99878.44;;;12.71;74.91
49825;BME280;35714;55.708;37.478;2023-09-19T03:28:43;99874.19;;;12.75;74.54
49825;BME280;35714;55.708;37.478;2023-09-19T03:31:09;99873.00;;;12.71;74.33
49825;BME280;35714;55.708;37.478;2023-09-19T03:33:36;99877.00;;;12.80;74.47
49825;BME280;35714;55.708;37.478;2023-09-19T03:36:04;99876.53;;;12.83;74.34
49825;BME280;35714;55.708;37.478;2023-09-19T03:38:31;99867.88;;;12.86;73.95
49825;BME280;35714;55.708;37.478;2023-09-19T03:40:58;99864.69;;;12.89;73.88
49825;BME280;35714;55.708;37.478;2023-09-19T03:43:24;99866.94;;;12.92;73.68
49825;BME280;35714;55.708;37.478;2023-09-19T03:45:50;99865.38;;;12.96;73.64
49825;BME280;35714;55.708;37.478;2023-09-19T03:48:17;99873.28;;;12.98;73.18
49825;BME280;35714;55.708;37.478;2023-09-19T03:50:43;99865.50;;;13.02;73.22
49825;BME280;35714;55.708;37.478;2023-09-19T03:53:09;99870.69;;;13.03;73.28
49825;BME280;35714;55.708;37.478;2023-09-19T03:55:35;99862.88;;;13.07;72.87
49825;BME280;35714;55.708;37.478;2023-09-19T03:58:02;99870.56;;;13.10;72.75
49825;BME280;35714;55.708;37.478;2023-09-19T04:00:28;99869.47;;;13.11;72.88
49825;BME280;35714;55.708;37.478;2023-09-19T04:02:55;99867.59;;;13.11;72.90
49825;BME280;35714;55.708;37.478;2023-09-19T04:05:22;99862.00;;;13.18;72.40
49825;BME280;35714;55.708;37.478;2023-09-19T04:07:49;99863.19;;;13.22;72.00
49825;BME280;35714;55.708;37.478;2023-09-19T04:10:16;99866.25;;;13.26;71.99
49825;BME280;35714;55.708;37.478;2023-09-19T04:12:55;99850.63;;;13.21;71.26
49825;BME280;35714;55.708;37.478;2023-09-19T04:15:23;99848.16;;;13.20;71.70
49825;BME280;35714;55.708;37.478;2023-09-19T04:17:50;99863.19;;;13.22;71.50
49825;BME280;35714;55.708;37.478;2023-09-19T04:20:19;99853.94;;;13.23;71.34
49825;BME280;35714;55.708;37.478;2023-09-19T04:22:45;99854.06;;;13.28;70.84
49825;BME280;35714;55.708;37.478;2023-09-19T04:25:12;99851.81;;;13.25;70.83
49825;BME280;35714;55.708;37.478;2023-09-19T04:27:38;99844.22;;;13.27;70.58
49825;BME280;35714;55.708;37.478;2023-09-19T04:30:06;99834.38;;;13.26;70.17
49825;BME280;35714;55.708;37.478;2023-09-19T04:32:36;99826.22;;;13.26;70.04
49825;BME280;35714;55.708;37.478;2023-09-19T04:35:09;99847.03;;;13.32;70.23
49825;BME280;35714;55.708;37.478;2023-09-19T04:37:39;99839.00;;;13.38;69.92
49825;BME280;35714;55.708;37.478;2023-09-19T04:40:07;99821.50;;;13.33;69.83
49825;BME280;35714;55.708;37.478;2023-09-19T04:42:40;99837.69;;;13.40;69.77
49825;BME280;35714;55.708;37.478;2023-09-19T04:45:06;99847.84;;;13.45;69.76
49825;BME280;35714;55.708;37.478;2023-09-19T04:47:32;99836.56;;;13.53;69.68
49825;BME280;35714;55.708;37.478;2023-09-19T04:49:58;99841.03;;;13.59;69.12
49825;BME280;35714;55.708;37.478;2023-09-19T04:52:25;99834.53;;;13.60;69.00
49825;BME280;35714;55.708;37.478;2023-09-19T04:54:50;99839.31;;;13.70;68.54
49825;BME280;35714;55.708;37.478;2023-09-19T04:57:16;99844.84;;;13.75;68.51
49825;BME280;35714;55.708;37.478;2023-09-19T04:59:41;99835.13;;;13.79;68.55
49825;BME280;35714;55.708;37.478;2023-09-19T05:02:07;99836.88;;;13.85;68.26
49825;BME280;35714;55.708;37.478;2023-09-19T05:04:37;99826.78;;;13.86;68.23
49825;BME280;35714;55.708;37.478;2023-09-19T05:07:04;99833.81;;;13.99;67.77
49825;BME280;35714;55.708;37.478;2023-09-19T05:09:29;99828.47;;;14.04;67.80
49825;BME280;35714;55.708;37.478;2023-09-19T05:11:55;99832.69;;;14.12;67.11
49825;BME280;35714;55.708;37.478;2023-09-19T05:14:22;99826.06;;;14.07;67.03
49825;BME280;35714;55.708;37.478;2023-09-19T05:16:48;99819.44;;;14.03;66.71
49825;BME280;35714;55.708;37.478;2023-09-19T05:19:13;99822.91;;;13.99;66.88
49825;BME280;35714;55.708;37.478;2023-09-19T05:21:39;99827.22;;;13.95;67.03
49825;BME280;35714;55.708;37.478;2023-09-19T05:24:05;99811.44;;;13.97;66.73
49825;BME280;35714;55.708;37.478;2023-09-19T05:26:33;99809.50;;;13.97;66.93
49825;BME280;35714;55.708;37.478;2023-09-19T05:28:59;99808.53;;;14.03;66.77
49825;BME280;35714;55.708;37.478;2023-09-19T05:31:26;99810.09;;;14.16;66.48
49825;BME280;35714;55.708;37.478;2023-09-19T05:33:53;99808.94;;;14.29;66.14
49825;BME280;35714;55.708;37.478;2023-09-19T05:36:20;99811.81;;;14.39;66.24
49825;BME280;35714;55.708;37.478;2023-09-19T05:38:46;99812.59;;;14.57;65.48
49825;BME280;35714;55.708;37.478;2023-09-19T05:41:15;99805.41;;;14.68;64.97
49825;BME280;35714;55.708;37.478;2023-09-19T05:43:41;99817.84;;;14.80;64.37
49825;BME280;35714;55.708;37.478;2023-09-19T05:46:07;99803.19;;;14.87;63.93
49825;BME280;35714;55.708;37.478;2023-09-19T05:48:33;99817.59;;;15.04;64.12
49825;BME280;35714;55.708;37.478;2023-09-19T05:50:59;99804.13;;;15.20;63.05
49825;BME280;35714;55.708;37.478;2023-09-19T05:53:27;99814.75;;;15.43;62.42
49825;BME280;35714;55.708;37.478;2023-09-19T05:55:52;99809.47;;;15.64;61.98
49825;BME280;35714;55.708;37.478;2023-09-19T05:58:19;99811.44;;;15.96;61.15
49825;BME280;35714;55.708;37.478;2023-09-19T06:00:45;99805.34;;;16.21;59.86
49825;BME280;35714;55.708;37.478;2023-09-19T06:03:13;99788.19;;;16.36;59.05
49825;BME280;35714;55.708;37.478;2023-09-19T06:05:40;99805.84;;;16.60;58.90
49825;BME280;35714;55.708;37.478;2023-09-19T06:08:08;99810.41;;;16.87;59.12
49825;BME280;35714;55.708;37.478;2023-09-19T06:10:35;99809.41;;;17.24;57.77
49825;BME280;35714;55.708;37.478;2023-09-19T06:13:04;99813.63;;;17.58;56.10
49825;BME280;35714;55.708;37.478;2023-09-19T06:15:30;99805.44;;;17.73;55.14
49825;BME280;35714;55.708;37.478;2023-09-19T06:17:59;99801.28;;;17.81;56.09
49825;BME280;35714;55.708;37.478;2023-09-19T06:20:30;99792.81;;;18.18;54.75
49825;BME280;35714;55.708;37.478;2023-09-19T06:22:57;99808.41;;;18.54;53.62
49825;BME280;35714;55.708;37.478;2023-09-19T06:25:22;99805.00;;;18.83;53.64
49825;BME280;35714;55.708;37.478;2023-09-19T06:27:49;99797.72;;;19.18;53.04
49825;BME280;35714;55.708;37.478;2023-09-19T06:30:18;99792.28;;;19.57;51.09
49825;BME280;35714;55.708;37.478;2023-09-19T06:32:44;99797.81;;;19.92;50.25
49825;BME280;35714;55.708;37.478;2023-09-19T06:35:11;99800.19;;;20.33;49.06
49825;BME280;35714;55.708;37.478;2023-09-19T06:37:38;99810.50;;;20.76;47.59
49825;BME280;35714;55.708;37.478;2023-09-19T06:40:10;99816.78;;;20.81;46.54
49825;BME280;35714;55.708;37.478;2023-09-19T06:42:45;99815.00;;;20.42;47.60
49825;BME280;35714;55.708;37.478;2023-09-19T06:45:12;99806.44;;;20.14;48.68
49825;BME280;35714;55.708;37.478;2023-09-19T06:47:39;99801.97;;;19.89;48.47
49825;BME280;35714;55.708;37.478;2023-09-19T06:50:05;99785.41;;;19.55;49.78
49825;BME280;35714;55.708;37.478;2023-09-19T06:52:34;99810.16;;;19.55;50.46
49825;BME280;35714;55.708;37.478;2023-09-19T06:55:00;99804.66;;;19.55;50.14
49825;BME280;35714;55.708;37.478;2023-09-19T06:57:30;99803.53;;;19.61;50.29
49825;BME280;35714;55.708;37.478;2023-09-19T06:59:56;99801.31;;;19.63;50.38
49825;BME280;35714;55.708;37.478;2023-09-19T07:02:22;99811.50;;;19.62;50.20
49825;BME280;35714;55.708;37.478;2023-09-19T07:04:47;99818.66;;;19.63;50.09
49825;BME280;35714;55.708;37.478;2023-09-19T07:07:13;99808.13;;;19.71;49.95
49825;BME280;35714;55.708;37.478;2023-09-19T07:09:39;99803.97;;;19.78;49.99
49825;BME280;35714;55.708;37.478;2023-09-19T07:12:05;99789.69;;;19.76;50.01
49825;BME280;35714;55.708;37.478;2023-09-19T07:14:31;99798.94;;;19.91;49.68
49825;BME280;35714;55.708;37.478;2023-09-19T07:16:57;99799.84;;;20.10;49.16
49825;BME280;35714;55.708;37.478;2023-09-19T07:19:26;99791.56;;;20.15;49.30
49825;BME280;35714;55.708;37.478;2023-09-19T07:21:54;99778.31;;;20.47;48.10
49825;BME280;35714;55.708;37.478;2023-09-19T07:24:19;99797.44;;;20.86;47.97
49825;BME280;35714;55.708;37.478;2023-09-19T07:26:47;99801.13;;;21.01;46.80
49825;BME280;35714;55.708;37.478;2023-09-19T07:29:14;99808.38;;;20.91;47.06
49825;BME280;35714;55.708;37.478;2023-09-19T07:31:39;99806.16;;;20.94;46.90
49825;BME280;35714;55.708;37.478;2023-09-19T07:34:05;99804.53;;;20.93;46.85
49825;BME280;35714;55.708;37.478;2023-09-19T07:36:30;99805.72;;;20.86;46.98
49825;BME280;35714;55.708;37.478;2023-09-19T07:38:57;99795.97;;;20.70;46.90
49825;BME280;35714;55.708;37.478;2023-09-19T07:41:24;99785.16;;;20.49;47.68
49825;BME280;35714;55.708;37.478;2023-09-19T07:43:49;99791.38;;;20.36;48.07
49825;BME280;35714;55.708;37.478;2023-09-19T07:46:15;99786.88;;;20.40;47.70
49825;BME280;35714;55.708;37.478;2023-09-19T07:48:42;99787.47;;;20.37;47.63
49825;BME280;35714;55.708;37.478;2023-09-19T07:51:13;99784.84;;;20.27;47.90
49825;BME280;35714;55.708;37.478;2023-09-19T07:53:42;99779.97;;;20.18;48.20
49825;BME280;35714;55.708;37.478;2023-09-19T07:56:09;99785.78;;;20.17;48.16
49825;BME280;35714;55.708;37.478;2023-09-19T07:58:35;99772.09;;;20.07;48.86
49825;BME280;35714;55.708;37.478;2023-09-19T08:01:07;99774.13;;;20.25;48.60
49825;BME280;35714;55.708;37.478;2023-09-19T08:03:37;99767.59;;;20.45;48.27
49825;BME280;35714;55.708;37.478;2023-09-19T08:06:11;99781.00;;;20.52;48.17
49825;BME280;35714;55.708;37.478;2023-09-19T08:08:37;99769.09;;;20.57;47.62
49825;BME280;35714;55.708;37.478;2023-09-19T08:11:04;99779.41;;;20.75;47.25
49825;BME280;35714;55.708;37.478;2023-09-19T08:13:38;99780.13;;;21.05;46.83
49825;BME280;35714;55.708;37.478;2023-09-19T08:16:11;99765.19;;;21.06;46.98
49825;BME280;35714;55.708;37.478;2023-09-19T08:18:37;99773.25;;;21.21;47.09
49825;BME280;35714;55.708;37.478;2023-09-19T08:21:06;99769.41;;;21.41;46.59
49825;BME280;35714;55.708;37.478;2023-09-19T08:23:37;99764.69;;;21.61;45.78
49825;BME280;35714;55.708;37.478;2023-09-19T08:26:04;99752.75;;;21.66;45.56
49825;BME280;35714;55.708;37.478;2023-09-19T08:28:35;99759.56;;;21.54;45.49
49825;BME280;35714;55.708;37.478;2023-09-19T08:31:05;99747.09;;;21.38;45.26
49825;BME280;35714;55.708;37.478;2023-09-19T08:33:35;99752.84;;;21.22;46.24
49825;BME280;35714;55.708;37.478;2023-09-19T08:36:04;99746.41;;;21.08;46.50
49825;BME280;35714;55.708;37.478;2023-09-19T08:38:34;99744.31;;;21.00;46.94
49825;BME280;35714;55.708;37.478;2023-09-19T08:41:04;99750.00;;;20.89;47.11
49825;BME280;35714;55.708;37.478;2023-09-19T08:43:30;99739.69;;;20.76;46.77
49825;BME280;35714;55.708;37.478;2023-09-19T08:46:07;99738.25;;;20.54;47.51
49825;BME280;35714;55.708;37.478;2023-09-19T08:49:03;99713.91;;;20.18;48.38
49825;BME280;35714;55.708;37.478;2023-09-19T08:51:33;99734.25;;;20.17;48.87
49825;BME280;35714;55.708;37.478;2023-09-19T08:54:08;99732.75;;;20.01;49.49
49825;BME280;35714;55.708;37.478;2023-09-19T08:56:37;99736.16;;;19.93;49.70
49825;BME280;35714;55.708;37.478;2023-09-19T08:59:06;99727.44;;;19.80;49.96
49825;BME280;35714;55.708;37.478;2023-09-19T09:01:38;99735.72;;;19.80;50.25
49825;BME280;35714;55.708;37.478;2023-09-19T09:04:08;99729.19;;;19.66;50.56
49825;BME280;35714;55.708;37.478;2023-09-19T09:06:39;99728.19;;;19.57;51.32
49825;BME280;35714;55.708;37.478;2023-09-19T09:09:06;99724.91;;;19.55;51.03
49825;BME280;35714;55.708;37.478;2023-09-19T09:11:33;99736.59;;;19.71;51.60
49825;BME280;35714;55.708;37.478;2023-09-19T09:13:59;99745.47;;;19.97;51.16
49825;BME280;35714;55.708;37.478;2023-09-19T09:16:25;99749.19;;;20.41;50.58
49825;BME280;35714;55.708;37.478;2023-09-19T09:18:51;99742.25;;;20.91;49.87
49825;BME280;35714;55.708;37.478;2023-09-19T09:21:26;99739.84;;;21.42;48.50
49825;BME280;35714;55.708;37.478;2023-09-19T09:23:52;99733.09;;;21.86;47.83
49825;BME280;35714;55.708;37.478;2023-09-19T09:29:02;99715.16;;;22.86;45.26
49825;BME280;35714;55.708;37.478;2023-09-19T09:31:28;99715.56;;;23.30;43.99
49825;BME280;35714;55.708;37.478;2023-09-19T09:33:55;99712.06;;;23.60;43.74
49825;BME280;35714;55.708;37.478;2023-09-19T09:36:37;99722.94;;;24.02;43.18
49825;BME280;35714;55.708;37.478;2023-09-19T09:39:04;99707.50;;;24.10;42.58
49825;BME280;35714;55.708;37.478;2023-09-19T09:41:51;99718.16;;;24.25;41.89
49825;BME280;35714;55.708;37.478;2023-09-19T09:44:18;99717.97;;;24.22;42.45
49825;BME280;35714;55.708;37.478;2023-09-19T09:46:46;99716.88;;;24.31;41.85
49825;BME280;35714;55.708;37.478;2023-09-19T09:49:22;99714.09;;;24.23;41.49
49825;BME280;35714;55.708;37.478;2023-09-19T09:54:28;99711.31;;;24.23;42.32
49825;BME280;35714;55.708;37.478;2023-09-19T09:57:11;99709.03;;;24.25;41.74
49825;BME280;35714;55.708;37.478;2023-09-19T10:02:13;99702.09;;;25.46;40.68
49825;BME280;35714;55.708;37.478;2023-09-19T10:04:39;99709.50;;;26.84;39.30
49825;BME280;35714;55.708;37.478;2023-09-19T10:07:28;99711.69;;;28.08;36.16
49825;BME280;35714;55.708;37.478;2023-09-19T10:10:00;99708.69;;;28.88;35.35
49825;BME280;35714;55.708;37.478;2023-09-19T10:12:38;99696.19;;;29.50;33.37
49825;BME280;35714;55.708;37.478;2023-09-19T10:15:08;99703.56;;;30.47;32.42
49825;BME280;35714;55.708;37.478;2023-09-19T10:17:36;99690.91;;;31.24;30.02
49825;BME280;35714;55.708;37.478;2023-09-19T10:20:11;99697.53;;;31.75;30.26
49825;BME280;35714;55.708;37.478;2023-09-19T10:22:49;99690.22;;;31.70;28.98
49825;BME280;35714;55.708;37.478;2023-09-19T10:25:25;99689.66;;;31.02;28.87
49825;BME280;35714;55.708;37.478;2023-09-19T10:27:52;99689.31;;;30.04;30.18
49825;BME280;35714;55.708;37.478;2023-09-19T10:30:20;99689.56;;;29.14;31.61
49825;BME280;35714;55.708;37.478;2023-09-19T10:32:47;99678.25;;;28.58;32.65
49825;BME280;35714;55.708;37.478;2023-09-19T10:35:18;99680.38;;;28.49;33.29
49825;BME280;35714;55.708;37.478;2023-09-19T10:37:47;99674.88;;;28.52;32.67
49825;BME280;35714;55.708;37.478;2023-09-19T10:40:16;99661.72;;;28.90;32.70
49825;BME280;35714;55.708;37.478;2023-09-19T10:42:42;99673.00;;;29.34;32.66
49825;BME280;35714;55.708;37.478;2023-09-19T10:45:11;99666.75;;;29.69;32.13
49825;BME280;35714;55.708;37.478;2023-09-19T10:47:39;99663.66;;;30.02;30.84
49825;BME280;35714;55.708;37.478;2023-09-19T10:50:06;99665.25;;;30.35;30.62
49825;BME280;35714;55.708;37.478;2023-09-19T10:52:40;99660.47;;;30.87;30.60
49825;BME280;35714;55.708;37.478;2023-09-19T10:55:08;99667.88;;;31.74;30.09
49825;BME280;35714;55.708;37.478;2023-09-19T10:57:35;99654.75;;;32.51;28.41
49825;BME280;35714;55.708;37.478;2023-09-19T11:00:08;99663.84;;;33.28;27.51
49825;BME280;35714;55.708;37.478;2023-09-19T11:06:00;99665.31;;;34.34;25.33
49825;BME280;35714;55.708;37.478;2023-09-19T11:08:27;99662.47;;;34.27;25.62
49825;BME280;35714;55.708;37.478;2023-09-19T11:10:53;99665.03;;;34.50;24.94
49825;BME280;35714;55.708;37.478;2023-09-19T11:13:29;99659.94;;;34.74;24.92
49825;BME280;35714;55.708;37.478;2023-09-19T11:16:04;99664.59;;;35.11;24.42
49825;BME280;35714;55.708;37.478;2023-09-19T11:26:41;99644.50;;;35.23;24.00
49825;BME280;35714;55.708;37.478;2023-09-19T11:29:26;99654.66;;;35.39;23.79
49825;BME280;35714;55.708;37.478;2023-09-19T11:31:54;99644.50;;;35.23;24.11
49825;BME280;35714;55.708;37.478;2023-09-19T11:40:11;99641.88;;;36.39;22.96
49825;BME280;35714;55.708;37.478;2023-09-19T11:42:45;99641.06;;;36.35;23.19
49825;BME280;35714;55.708;37.478;2023-09-19T11:48:15;99636.94;;;35.49;22.90
49825;BME280;35714;55.708;37.478;2023-09-19T11:50:44;99614.31;;;35.20;23.33
49825;BME280;35714;55.708;37.478;2023-09-19T11:53:13;99633.31;;;35.56;23.58
49825;BME280;35714;55.708;37.478;2023-09-19T11:55:43;99624.53;;;36.01;23.14
49825;BME280;35714;55.708;37.478;2023-09-19T11:58:17;99610.81;;;36.46;22.88
49825;BME280;35714;55.708;37.478;2023-09-19T12:00:44;99622.78;;;36.93;22.03
49825;BME280;35714;55.708;37.478;2023-09-19T12:03:11;99615.50;;;36.92;22.53
49825;BME280;35714;55.708;37.478;2023-09-19T12:05:39;99613.13;;;36.87;21.75
49825;BME280;35714;55.708;37.478;2023-09-19T12:08:05;99613.19;;;36.62;22.03
49825;BME280;35714;55.708;37.478;2023-09-19T12:10:54;99609.16;;;36.59;22.21
49825;BME280;35714;55.708;37.478;2023-09-19T12:13:23;99597.50;;;36.21;22.23
49825;BME280;35714;55.708;37.478;2023-09-19T12:15:49;99607.63;;;35.86;22.54
49825;BME280;35714;55.708;37.478;2023-09-19T12:18:30;99598.34;;;35.82;22.73
49825;BME280;35714;55.708;37.478;2023-09-19T12:20:57;99588.53;;;35.18;23.69
49825;BME280;35714;55.708;37.478;2023-09-19T12:23:28;99589.59;;;34.85;23.84
49825;BME280;35714;55.708;37.478;2023-09-19T12:25:54;99579.75;;;34.46;24.06
49825;BME280;35714;55.708;37.478;2023-09-19T12:28:26;99584.13;;;34.40;24.34
49825;BME280;35714;55.708;37.478;2023-09-19T12:30:52;99575.25;;;34.38;24.75
49825;BME280;35714;55.708;37.478;2023-09-19T12:33:21;99571.00;;;34.66;24.08
49825;BME280;35714;55.708;37.478;2023-09-19T12:35:52;99573.53;;;34.89;23.78
49825;BME280;35714;55.708;37.478;2023-09-19T12:38:27;99577.84;;;34.72;24.31
49825;BME280;35714;55.708;37.478;2023-09-19T12:40:57;99570.13;;;34.55;24.21
49825;BME280;35714;55.708;37.478;2023-09-19T12:43:28;99565.47;;;34.87;23.75
49825;BME280;35714;55.708;37.478;2023-09-19T12:45:53;99571.88;;;34.77;23.69
49825;BME280;35714;55.708;37.478;2023-09-19T12:48:23;99575.16;;;35.01;23.51
49825;BME280;35714;55.708;37.478;2023-09-19T12:51:07;99554.31;;;35.23;23.42
49825;BME280;35714;55.708;37.478;2023-09-19T12:53:39;99559.19;;;35.41;22.82
49825;BME280;35714;55.708;37.478;2023-09-19T12:56:09;99558.25;;;35.01;23.21
49825;BME280;35714;55.708;37.478;2023-09-19T12:58:55;99567.09;;;34.92;23.63
49825;BME280;35714;55.708;37.478;2023-09-19T13:01:23;99559.09;;;35.01;23.88
49825;BME280;35714;55.708;37.478;2023-09-19T13:06:38;99551.94;;;35.54;22.67
49825;BME280;35714;55.708;37.478;2023-09-19T13:09:10;99558.41;;;35.44;23.06
49825;BME280;35714;55.708;37.478;2023-09-19T13:11:37;99541.06;;;35.38;22.37
49825;BME280;35714;55.708;37.478;2023-09-19T13:14:27;99553.09;;;35.17;23.28
49825;BME280;35714;55.708;37.478;2023-09-19T13:19:42;99544.16;;;34.94;23.56
49825;BME280;35714;55.708;37.478;2023-09-19T13:22:39;99542.50;;;34.82;23.81
49825;BME280;35714;55.708;37.478;2023-09-19T13:25:10;99546.03;;;34.61;23.68
49825;BME280;35714;55.708;37.478;2023-09-19T13:27:41;99536.91;;;34.19;24.01
49825;BME280;35714;55.708;37.478;2023-09-19T13:30:07;99544.91;;;34.10;24.43
49825;BME280;35714;55.708;37.478;2023-09-19T13:32:33;99540.97;;;34.22;24.36
49825;BME280;35714;55.708;37.478;2023-09-19T13:34:59;99539.72;;;34.15;24.30
49825;BME280;35714;55.708;37.478;2023-09-19T13:37:25;99531.00;;;34.31;24.80
49825;BME280;35714;55.708;37.478;2023-09-19T13:39:52;99524.19;;;34.32;24.49
49825;BME280;35714;55.708;37.478;2023-09-19T13:42:19;99523.28;;;34.21;23.28
49825;BME280;35714;55.708;37.478;2023-09-19T13:44:47;99521.53;;;33.98;23.73
49825;BME280;35714;55.708;37.478;2023-09-19T13:47:13;99522.81;;;33.60;23.93
49825;BME280;35714;55.708;37.478;2023-09-19T13:49:40;99522.88;;;33.22;25.40